Time;durP1;ratioP1;P1;durP2;ratioP2;P2;SDS_P1;SDS_P2;PMS_P1;PMS_P2;Temp;Humidity;BMP_temperature;BMP_pressure;BME280_temperature;BME280_humidity;BME280_pressure;Samples;Min_cycle;Max_cycle;Signal;HPM_P1;HPM_P2
2021/10/10 00:00:55;;;;;;;80.07;47.22;;;;;;;7.19;92.83;102664.22;5018277;28;20113;-64
2021/10/10 00:03:21;;;;;;;70.15;43.25;;;;;;;7.20;93.03;102666.03;5015387;28;20175;-65
2021/10/10 00:05:46;;;;;;;75.45;46.38;;;;;;;7.15;93.55;102662.31;5019651;28;20018;-65
2021/10/10 00:08:11;;;;;;;69.65;44.10;;;;;;;7.07;93.30;102663.66;5016419;28;20496;-65
2021/10/10 00:10:37;;;;;;;71.55;44.47;;;;;;;6.97;92.63;102663.22;5016671;28;20096;-65
2021/10/10 00:13:02;;;;;;;71.85;45.08;;;;;;;6.92;93.68;102664.72;5017485;28;20036;-67
2021/10/10 00:15:28;;;;;;;77.07;46.17;;;;;;;6.97;94.45;102671.13;5017855;28;20034;-66
2021/10/10 00:17:53;;;;;;;84.20;48.92;;;;;;;6.92;95.87;102664.72;5020677;28;20026;-65
2021/10/10 00:20:19;;;;;;;77.45;46.42;;;;;;;6.96;95.77;102660.50;5019442;28;20026;-65
2021/10/10 00:22:45;;;;;;;77.80;46.60;;;;;;;6.96;95.76;102666.66;5020115;28;20469;-65
2021/10/10 00:25:11;;;;;;;83.15;48.58;;;;;;;6.87;95.83;102666.19;5024614;28;20036;-65
2021/10/10 00:27:37;;;;;;;128.65;52.90;;;;;;;6.90;99.08;102666.38;5020021;28;20022;-65
2021/10/10 00:30:04;;;;;;;118.85;53.10;;;;;;;6.93;99.60;102658.63;5027609;28;20031;-65
2021/10/10 00:32:29;;;;;;;106.10;54.22;;;;;;;6.87;98.12;102660.06;5018353;28;20029;-65
2021/10/10 00:34:55;;;;;;;99.88;51.15;;;;;;;6.88;96.50;102665.38;5025187;28;20026;-64
2021/10/10 00:37:20;;;;;;;59.88;39.50;;;;;;;6.79;96.25;102657.06;5021024;28;20036;-65
2021/10/10 00:39:46;;;;;;;77.40;45.40;;;;;;;6.89;96.96;102651.44;5026918;28;20456;-64
2021/10/10 00:42:11;;;;;;;79.25;46.38;;;;;;;6.79;95.27;102652.69;5023064;28;20025;-65
2021/10/10 00:44:36;;;;;;;79.45;45.72;;;;;;;6.74;95.54;102648.03;5024859;28;20392;-65
2021/10/10 00:47:02;;;;;;;145.10;58.25;;;;;;;6.82;99.60;102645.81;5026072;28;20036;-65
2021/10/10 00:49:27;;;;;;;120.45;57.70;;;;;;;6.71;100.00;102638.28;5023606;28;20104;-65
2021/10/10 00:51:53;;;;;;;91.00;52.25;;;;;;;6.56;99.93;102638.44;5020443;28;20069;-64
2021/10/10 00:54:19;;;;;;;149.80;58.20;;;;;;;6.49;100.00;102636.31;5022880;28;20381;-65
2021/10/10 00:56:46;;;;;;;125.57;54.70;;;;;;;6.34;100.00;102639.09;5025202;28;20029;-65
2021/10/10 00:59:13;;;;;;;123.22;55.70;;;;;;;6.33;100.00;102629.41;5018567;28;20080;-66
2021/10/10 01:01:38;;;;;;;182.38;58.83;;;;;;;6.27;100.00;102634.34;5025059;28;20057;-65
2021/10/10 01:04:04;;;;;;;183.25;60.28;;;;;;;6.08;100.00;102622.91;5022461;28;20057;-65
2021/10/10 01:06:29;;;;;;;140.20;57.33;;;;;;;6.08;100.00;102627.25;5021432;28;20537;-64
2021/10/10 01:08:54;;;;;;;122.40;58.25;;;;;;;6.12;100.00;102634.47;5020182;28;20112;-65
2021/10/10 01:11:21;;;;;;;99.95;52.25;;;;;;;6.05;100.00;102638.50;5021650;28;20104;-64
2021/10/10 01:13:47;;;;;;;103.45;51.70;;;;;;;6.07;100.00;102641.22;5023202;28;20024;-65
2021/10/10 01:16:14;;;;;;;136.32;53.20;;;;;;;5.90;100.00;102641.22;5019264;28;20034;-64
2021/10/10 01:18:40;;;;;;;134.85;52.83;;;;;;;5.84;100.00;102635.66;5020905;28;20054;-64
2021/10/10 01:21:05;;;;;;;131.27;53.05;;;;;;;5.82;100.00;102639.91;5023048;28;21198;-64
2021/10/10 01:23:30;;;;;;;111.15;54.60;;;;;;;5.84;100.00;102635.66;5018952;28;20101;-65
2021/10/10 01:25:56;;;;;;;105.05;51.33;;;;;;;5.81;100.00;102631.94;5019988;28;20041;-64
2021/10/10 01:28:21;;;;;;;111.13;50.30;;;;;;;5.86;100.00;102635.72;5019795;28;20021;-64
2021/10/10 01:30:46;;;;;;;83.18;47.05;;;;;;;5.91;100.00;102640.41;5020903;28;20074;-64
2021/10/10 01:33:14;;;;;;;72.53;46.22;;;;;;;5.92;100.00;102634.31;5019492;28;20092;-65
2021/10/10 01:35:40;;;;;;;70.72;46.55;;;;;;;5.82;100.00;102634.66;5018688;28;20025;-64
2021/10/10 01:38:07;;;;;;;65.95;45.22;;;;;;;5.72;100.00;102629.75;5021609;28;20033;-67
2021/10/10 01:40:34;;;;;;;68.85;44.28;;;;;;;5.78;100.00;102637.94;5020149;28;20476;-64
2021/10/10 01:43:02;;;;;;;70.43;46.15;;;;;;;5.79;100.00;102628.34;5022532;28;20465;-64
2021/10/10 01:45:28;;;;;;;61.55;42.42;;;;;;;5.93;100.00;102632.59;5020427;28;20034;-64
2021/10/10 01:47:53;;;;;;;68.05;44.65;;;;;;;5.88;100.00;102632.38;5022304;28;20033;-64
2021/10/10 01:50:18;;;;;;;63.47;42.30;;;;;;;5.91;100.00;102622.03;5023469;28;20053;-66
2021/10/10 01:52:46;;;;;;;58.85;40.97;;;;;;;5.90;100.00;102622.84;5023328;28;20027;-64
2021/10/10 01:55:12;;;;;;;58.35;40.53;;;;;;;5.80;100.00;102627.53;5021306;28;20022;-66
2021/10/10 01:57:38;;;;;;;60.88;41.20;;;;;;;5.76;100.00;102613.34;5024201;28;20419;-65
2021/10/10 02:00:05;;;;;;;55.85;39.88;;;;;;;5.70;100.00;102621.78;5021979;28;20465;-64
2021/10/10 02:02:30;;;;;;;57.42;39.17;;;;;;;5.74;100.00;102609.75;5020388;28;20461;-64
2021/10/10 02:04:55;;;;;;;56.53;39.97;;;;;;;5.78;100.00;102622.19;5022168;28;20026;-65
2021/10/10 02:07:20;;;;;;;56.40;39.05;;;;;;;5.54;100.00;102622.69;5020201;28;20040;-64
2021/10/10 02:09:46;;;;;;;58.70;40.03;;;;;;;5.60;100.00;102616.88;5019198;28;20022;-66
2021/10/10 02:12:11;;;;;;;63.83;41.40;;;;;;;5.71;100.00;102613.09;5019052;28;20030;-65
2021/10/10 02:14:36;;;;;;;97.40;50.28;;;;;;;5.78;100.00;102610.78;5021315;28;20060;-66
2021/10/10 02:17:05;;;;;;;68.88;44.10;;;;;;;5.77;100.00;102615.16;5018944;28;20033;-65
2021/10/10 02:19:30;;;;;;;73.20;43.95;;;;;;;5.68;100.00;102609.41;5015713;28;20045;-64
2021/10/10 02:21:56;;;;;;;89.88;44.95;;;;;;;5.64;100.00;102612.72;5013891;28;20038;-65
2021/10/10 02:24:22;;;;;;;92.82;43.15;;;;;;;5.48;100.00;102604.00;5019729;28;20026;-64
2021/10/10 02:26:47;;;;;;;76.25;44.80;;;;;;;5.44;100.00;102604.66;5019773;28;20380;-65
2021/10/10 02:29:13;;;;;;;69.97;44.50;;;;;;;5.50;100.00;102599.72;5017810;28;20030;-64
2021/10/10 02:31:42;;;;;;;69.78;44.97;;;;;;;5.45;100.00;102595.09;5019536;28;20025;-64
2021/10/10 02:34:09;;;;;;;82.20;44.08;;;;;;;5.40;100.00;102594.81;5016061;28;20047;-65
2021/10/10 02:36:34;;;;;;;89.90;46.97;;;;;;;5.35;100.00;102593.69;5018962;28;20026;-64
2021/10/10 02:39:00;;;;;;;80.35;45.00;;;;;;;5.41;100.00;102592.28;5016897;28;20381;-65
2021/10/10 02:41:25;;;;;;;64.97;41.40;;;;;;;5.28;100.00;102596.81;5019137;28;20484;-64
2021/10/10 02:43:50;;;;;;;65.47;42.97;;;;;;;5.20;100.00;102589.41;5017404;28;20053;-64
2021/10/10 02:46:16;;;;;;;74.63;45.38;;;;;;;5.21;100.00;102596.47;5018207;28;20096;-64
2021/10/10 02:48:41;;;;;;;76.05;46.53;;;;;;;5.24;100.00;102585.22;5016986;28;20029;-65
2021/10/10 02:51:06;;;;;;;89.93;46.95;;;;;;;5.21;100.00;102596.47;5019067;28;20041;-64
2021/10/10 02:53:31;;;;;;;80.72;47.33;;;;;;;5.23;100.00;102583.44;5018452;28;20022;-64
2021/10/10 02:55:57;;;;;;;76.20;47.08;;;;;;;5.30;100.00;102584.66;5020566;28;20037;-69
2021/10/10 02:58:22;;;;;;;78.43;48.50;;;;;;;5.32;100.00;102583.03;5020115;28;20028;-70
2021/10/10 03:00:48;;;;;;;83.18;52.78;;;;;;;5.35;100.00;102588.44;5021279;28;20025;-71
2021/10/10 03:03:13;;;;;;;75.68;49.10;;;;;;;5.30;100.00;102584.66;5019288;28;20029;-69
2021/10/10 03:05:38;;;;;;;74.90;48.60;;;;;;;5.32;100.00;102590.91;5021237;28;20037;-68
2021/10/10 03:08:04;;;;;;;144.65;57.08;;;;;;;5.26;100.00;102582.69;5024024;28;20476;-70
2021/10/10 03:10:29;;;;;;;95.18;52.28;;;;;;;5.23;100.00;102584.34;5022509;28;20037;-68
2021/10/10 03:12:54;;;;;;;89.13;50.35;;;;;;;5.09;100.00;102582.69;5022002;28;20018;-69
2021/10/10 03:15:20;;;;;;;92.88;51.50;;;;;;;5.10;100.00;102576.63;5021031;28;20357;-71
2021/10/10 03:17:45;;;;;;;102.97;54.85;;;;;;;5.14;100.00;102578.59;5020492;28;20400;-69
2021/10/10 03:20:12;;;;;;;158.52;55.35;;;;;;;5.09;100.00;102584.41;5018430;28;20018;-69
2021/10/10 03:22:37;;;;;;;126.50;55.67;;;;;;;5.06;100.00;102579.91;5018925;28;20076;-70
2021/10/10 03:25:03;;;;;;;116.32;53.75;;;;;;;4.96;100.00;102583.72;5019856;28;20113;-70
2021/10/10 03:27:28;;;;;;;101.40;53.55;;;;;;;4.91;100.00;102581.66;5018954;28;20087;-68
2021/10/10 03:29:54;;;;;;;104.32;54.55;;;;;;;4.93;100.00;102587.91;5018072;28;20026;-70
2021/10/10 03:32:19;;;;;;;106.93;53.17;;;;;;;4.88;100.00;102579.81;5017689;28;20358;-68
2021/10/10 03:34:45;;;;;;;107.82;55.65;;;;;;;4.97;100.00;102582.03;5021011;28;20028;-70
2021/10/10 03:37:10;;;;;;;133.23;56.47;;;;;;;4.87;100.00;102586.75;5017647;28;20037;-69
2021/10/10 03:39:35;;;;;;;134.85;57.63;;;;;;;4.81;100.00;102590.75;5018530;28;20057;-68
2021/10/10 03:42:01;;;;;;;128.82;56.40;;;;;;;4.81;100.00;102586.41;5017206;28;20065;-70
2021/10/10 03:44:26;;;;;;;143.68;57.58;;;;;;;4.91;100.00;102593.06;5015256;28;20112;-69
2021/10/10 03:46:52;;;;;;;143.15;57.17;;;;;;;4.88;100.00;102591.19;5019523;28;20036;-69
2021/10/10 03:49:17;;;;;;;109.30;55.67;;;;;;;4.96;100.00;102585.47;5015375;28;20072;-70
2021/10/10 03:51:42;;;;;;;126.32;55.47;;;;;;;4.91;100.00;102589.53;5018921;28;20392;-71
2021/10/10 03:56:39;;;;;;;139.63;57.30;;;;;;;4.82;100.00;102588.22;5019328;28;20050;-68
2021/10/10 03:59:04;;;;;;;118.25;55.72;;;;;;;4.88;100.00;102585.06;5022720;28;20393;-71
2021/10/10 04:01:30;;;;;;;113.15;55.38;;;;;;;4.77;100.00;102587.06;5020601;28;20092;-70
2021/10/10 04:03:55;;;;;;;96.97;53.63;;;;;;;4.82;100.00;102584.69;5022947;28;20385;-70
2021/10/10 04:06:20;;;;;;;124.28;54.70;;;;;;;4.83;100.00;102586.50;5020833;28;20026;-69
2021/10/10 04:08:46;;;;;;;161.10;58.75;;;;;;;4.72;100.00;102578.94;5023494;28;20030;-70
2021/10/10 04:11:11;;;;;;;128.00;57.47;;;;;;;4.67;100.00;102579.50;5026361;28;20058;-70
2021/10/10 04:13:38;;;;;;;136.32;56.38;;;;;;;4.62;100.00;102579.25;5025991;28;20033;-70
2021/10/10 04:16:04;;;;;;;167.07;59.47;;;;;;;4.48;100.00;102581.06;5023867;28;20431;-67
2021/10/10 04:18:29;;;;;;;138.20;57.97;;;;;;;4.54;100.00;102580.50;5024548;28;20067;-69
2021/10/10 04:20:56;;;;;;;119.70;56.20;;;;;;;4.62;100.00;102583.59;5024449;28;20033;-68
2021/10/10 04:23:22;;;;;;;109.00;54.50;;;;;;;4.63;100.00;102593.22;5025537;28;20060;-69
2021/10/10 04:25:47;;;;;;;107.88;55.13;;;;;;;4.64;100.00;102589.81;5027558;28;20025;-69
2021/10/10 04:28:12;;;;;;;106.38;53.95;;;;;;;4.65;100.00;102589.88;5024961;28;20052;-68
2021/10/10 04:30:38;;;;;;;111.25;55.28;;;;;;;4.71;100.00;102585.00;5027036;28;20029;-70
2021/10/10 04:33:03;;;;;;;106.80;55.40;;;;;;;4.65;100.00;102586.38;5022441;28;20463;-70
2021/10/10 04:35:28;;;;;;;102.82;54.60;;;;;;;4.51;100.00;102588.19;5024145;28;20021;-71
2021/10/10 04:37:54;;;;;;;99.75;53.63;;;;;;;4.60;100.00;102583.50;5022293;28;20022;-70
2021/10/10 04:40:19;;;;;;;105.72;56.70;;;;;;;4.57;100.00;102577.19;5027167;28;20029;-70
2021/10/10 04:42:44;;;;;;;114.93;59.13;;;;;;;4.49;100.00;102575.03;5020947;28;20026;-71
2021/10/10 04:45:10;;;;;;;100.25;54.97;;;;;;;4.50;100.00;102579.47;5021145;28;20045;-70
2021/10/10 04:47:35;;;;;;;100.22;55.25;;;;;;;4.44;100.00;102572.94;5023698;28;21034;-68
2021/10/10 04:50:00;;;;;;;102.80;55.47;;;;;;;4.41;100.00;102583.25;5019364;28;20045;-71
2021/10/10 04:52:26;;;;;;;106.38;55.92;;;;;;;4.38;100.00;102591.84;5022015;28;20464;-71
2021/10/10 04:54:51;;;;;;;112.25;55.38;;;;;;;4.32;100.00;102581.00;5026554;28;20083;-71
2021/10/10 04:57:17;;;;;;;98.93;55.42;;;;;;;4.44;100.00;102586.06;5020260;28;20080;-70
2021/10/10 04:59:49;;;;;;;100.47;55.67;;;;;;;4.34;100.00;102589.88;5021551;28;20113;-69
2021/10/10 05:02:24;;;;;;;108.22;55.83;;;;;;;4.29;100.00;102586.06;5021615;28;20022;-70
2021/10/10 05:04:50;;;;;;;108.43;56.17;;;;;;;4.27;100.00;102591.22;5016462;28;20029;-71
2021/10/10 05:07:17;;;;;;;99.80;53.58;;;;;;;4.28;100.00;102584.25;5019709;28;20034;-68
2021/10/10 05:09:42;;;;;;;101.57;54.60;;;;;;;4.18;100.00;102578.50;5022839;28;20074;-69
2021/10/10 05:12:08;;;;;;;104.97;53.22;;;;;;;4.13;100.00;102579.94;5022374;28;20025;-69
2021/10/10 05:14:33;;;;;;;90.03;54.75;;;;;;;4.18;100.00;102591.59;5019088;28;20033;-71
2021/10/10 05:16:58;;;;;;;88.63;52.92;;;;;;;4.10;100.00;102585.00;5019171;28;20358;-70
2021/10/10 05:19:25;;;;;;;93.90;52.75;;;;;;;4.19;100.00;102589.88;5020814;28;20030;-69
2021/10/10 05:21:50;;;;;;;85.43;50.67;;;;;;;4.23;100.00;102590.97;5020753;28;20051;-70
2021/10/10 05:24:15;;;;;;;87.15;51.05;;;;;;;4.18;100.00;102588.09;5020012;28;20030;-69
2021/10/10 05:26:41;;;;;;;84.22;50.83;;;;;;;4.10;100.00;102591.97;5017299;28;20022;-71
2021/10/10 05:29:06;;;;;;;93.18;54.28;;;;;;;4.10;100.00;102590.22;5020266;28;20040;-71
2021/10/10 05:31:32;;;;;;;99.35;52.00;;;;;;;4.06;100.00;102582.13;5016558;28;20025;-71
2021/10/10 05:33:57;;;;;;;94.28;52.05;;;;;;;4.13;100.00;102582.56;5021364;28;20025;-70
2021/10/10 05:36:23;;;;;;;88.75;51.05;;;;;;;4.17;100.00;102587.16;5017419;28;20466;-71
2021/10/10 05:38:48;;;;;;;84.88;50.63;;;;;;;4.22;100.00;102583.91;5020755;28;20049;-71
2021/10/10 05:41:13;;;;;;;91.03;49.58;;;;;;;4.13;100.00;102581.66;5018027;28;20535;-71
2021/10/10 05:43:39;;;;;;;90.35;50.35;;;;;;;4.22;100.00;102584.81;5019703;28;20119;-63
2021/10/10 05:46:04;;;;;;;103.50;52.92;;;;;;;4.04;100.00;102583.75;5021272;28;20028;-66
2021/10/10 05:48:30;;;;;;;110.88;51.38;;;;;;;4.00;100.00;102582.66;5018963;28;20349;-65
2021/10/10 05:50:55;;;;;;;100.93;51.88;;;;;;;4.01;100.00;102584.47;5019146;28;20124;-66
2021/10/10 05:53:21;;;;;;;93.00;51.38;;;;;;;4.03;100.00;102588.06;5022657;28;20068;-65
2021/10/10 05:55:46;;;;;;;92.40;51.50;;;;;;;3.98;100.00;102592.16;5022309;28;20121;-66
2021/10/10 05:58:20;;;;;;;102.57;52.72;;;;;;;4.01;100.00;102592.31;5026675;28;20026;-65
2021/10/10 06:00:46;;;;;;;99.03;52.42;;;;;;;3.98;100.00;102594.75;5019424;28;20108;-66
2021/10/10 06:03:11;;;;;;;103.20;53.08;;;;;;;3.95;100.00;102605.06;5020578;28;20109;-65
2021/10/10 06:05:37;;;;;;;99.38;53.70;;;;;;;3.89;100.00;102602.97;5020994;28;20030;-66
2021/10/10 06:08:03;;;;;;;98.93;53.30;;;;;;;3.89;100.00;102604.66;5023413;28;20459;-66
2021/10/10 06:10:28;;;;;;;86.10;51.97;;;;;;;3.93;100.00;102609.28;5016089;28;20036;-66
2021/10/10 06:12:54;;;;;;;95.78;51.55;;;;;;;4.00;100.00;102599.28;5022457;28;20017;-64
2021/10/10 06:15:19;;;;;;;99.70;51.38;;;;;;;4.07;100.00;102600.53;5023901;28;20033;-64
2021/10/10 06:17:45;;;;;;;96.25;52.38;;;;;;;4.07;100.00;102613.63;5021730;28;20022;-66
2021/10/10 06:20:10;;;;;;;108.32;54.35;;;;;;;4.18;100.00;102609.91;5022201;28;20061;-66
2021/10/10 06:22:36;;;;;;;112.78;54.03;;;;;;;4.10;100.00;102599.81;5017719;28;20087;-65
2021/10/10 06:25:03;;;;;;;98.93;53.90;;;;;;;4.19;100.00;102606.50;5018439;28;20528;-66
2021/10/10 06:27:28;;;;;;;100.18;54.47;;;;;;;4.19;100.00;102606.50;5024796;28;20413;-67
2021/10/10 06:29:54;;;;;;;109.93;55.88;;;;;;;4.27;100.00;102598.19;5018188;28;20032;-66
2021/10/10 06:32:19;;;;;;;120.78;56.55;;;;;;;4.34;100.00;102598.63;5020408;28;20413;-65
2021/10/10 06:34:44;;;;;;;101.10;53.03;;;;;;;4.40;100.00;102602.41;5019143;28;20025;-65
2021/10/10 06:37:10;;;;;;;123.57;55.08;;;;;;;4.45;100.00;102604.47;5018476;28;20071;-64
2021/10/10 06:39:35;;;;;;;107.30;54.10;;;;;;;4.53;100.00;102618.91;5023655;28;20064;-66
2021/10/10 06:42:02;;;;;;;93.05;50.25;;;;;;;4.61;100.00;102618.44;5017340;28;20440;-63
2021/10/10 06:44:29;;;;;;;95.45;53.33;;;;;;;4.56;100.00;102622.50;5019225;28;20480;-63
2021/10/10 06:46:54;;;;;;;94.30;53.00;;;;;;;4.57;100.00;102608.59;5014668;28;20021;-62
2021/10/10 06:49:19;;;;;;;102.20;53.65;;;;;;;4.59;100.00;102612.22;5018979;28;20104;-61
2021/10/10 06:51:45;;;;;;;100.95;53.47;;;;;;;4.62;100.00;102600.19;5016943;28;20050;-63
2021/10/10 06:54:10;;;;;;;101.40;54.08;;;;;;;4.76;100.00;102592.22;5016528;28;20021;-63
2021/10/10 06:56:35;;;;;;;91.47;53.65;;;;;;;4.78;100.00;102583.63;5019206;28;20384;-60
2021/10/10 06:59:01;;;;;;;94.07;53.53;;;;;;;4.79;100.00;102579.28;5016799;28;20025;-61
2021/10/10 07:01:26;;;;;;;95.50;53.22;;;;;;;4.79;100.00;102580.19;5022246;28;20037;-64
2021/10/10 07:03:52;;;;;;;98.68;53.70;;;;;;;4.87;100.00;102589.38;5019348;28;20105;-64
2021/10/10 07:06:18;;;;;;;96.43;55.28;;;;;;;4.91;100.00;102589.53;5019841;28;20034;-65
2021/10/10 07:08:43;;;;;;;92.28;55.35;;;;;;;5.10;100.00;102586.19;5018717;28;20030;-65
2021/10/10 07:11:09;;;;;;;87.25;54.05;;;;;;;5.22;100.00;102577.28;5018046;28;20477;-64
2021/10/10 07:13:34;;;;;;;80.93;53.78;;;;;;;5.30;100.00;102569.84;5019759;28;20041;-64
2021/10/10 07:15:59;;;;;;;78.00;54.67;;;;;;;5.35;100.00;102570.09;5018611;28;20497;-64
2021/10/10 07:18:27;;;;;;;76.90;53.70;;;;;;;5.45;100.00;102584.59;5019154;28;20477;-64
2021/10/10 07:21:05;;;;;;;75.10;52.78;;;;;;;5.64;100.00;102596.97;5019310;28;20053;-65
2021/10/10 07:25:57;;;;;;;72.93;52.80;;;;;;;5.97;100.00;102615.28;5018995;28;20124;-64
2021/10/10 07:28:22;;;;;;;78.25;53.03;;;;;;;6.22;100.00;102614.84;5022373;28;20045;-66
2021/10/10 07:30:48;;;;;;;77.60;51.50;;;;;;;6.31;100.00;102609.16;5024099;28;20049;-65
2021/10/10 07:33:14;;;;;;;77.07;52.83;;;;;;;6.36;100.00;102607.63;5022016;28;20428;-64
2021/10/10 07:35:40;;;;;;;87.78;51.83;;;;;;;6.46;100.00;102604.63;5024762;28;20080;-66
2021/10/10 07:38:05;;;;;;;76.38;51.25;;;;;;;6.69;100.00;102612.75;5022403;28;20525;-65
2021/10/10 07:40:31;;;;;;;80.60;53.33;;;;;;;6.80;100.00;102619.41;5026089;28;20496;-65
2021/10/10 07:42:56;;;;;;;84.75;53.58;;;;;;;6.80;100.00;102622.03;5024593;28;20108;-65
2021/10/10 07:45:24;;;;;;;86.72;54.75;;;;;;;6.92;100.00;102616.50;5025412;28;20084;-66
2021/10/10 07:47:50;;;;;;;87.88;53.35;;;;;;;6.89;100.00;102624.25;5024697;28;20053;-65
2021/10/10 07:50:18;;;;;;;82.93;53.92;;;;;;;6.94;100.00;102626.22;5025561;28;20108;-64
2021/10/10 07:52:44;;;;;;;81.65;54.47;;;;;;;7.17;100.00;102628.19;5024221;28;20074;-65
2021/10/10 07:55:10;;;;;;;83.30;54.13;;;;;;;7.21;100.00;102615.22;5022649;28;20029;-65
2021/10/10 07:57:35;;;;;;;81.10;54.78;;;;;;;7.43;100.00;102605.69;5027104;28;20025;-64
2021/10/10 08:00:00;;;;;;;77.15;54.05;;;;;;;7.53;100.00;102607.91;5021159;28;20490;-64
2021/10/10 08:02:30;;;;;;;83.57;57.65;;;;;;;7.72;100.00;102604.34;5028114;28;20021;-69
2021/10/10 08:04:55;;;;;;;80.50;56.22;;;;;;;8.02;100.00;102602.16;5024728;28;20030;-65
2021/10/10 08:07:20;;;;;;;78.07;56.03;;;;;;;8.16;100.00;102599.22;5022181;28;20109;-64
2021/10/10 08:09:46;;;;;;;84.78;56.38;;;;;;;8.21;100.00;102605.56;5024088;28;20026;-65
2021/10/10 08:12:11;;;;;;;82.65;56.90;;;;;;;8.30;100.00;102610.31;5021873;28;20029;-64
2021/10/10 08:14:36;;;;;;;84.93;56.88;;;;;;;8.37;100.00;102622.91;5024006;28;20096;-65
2021/10/10 08:17:02;;;;;;;87.68;61.40;;;;;;;8.50;100.00;102621.72;5020490;28;20109;-64
2021/10/10 08:19:27;;;;;;;90.47;60.00;;;;;;;8.48;100.00;102626.03;5020289;28;20053;-65
2021/10/10 08:21:53;;;;;;;88.22;58.90;;;;;;;8.40;100.00;102624.78;5022154;28;20036;-66
2021/10/10 08:24:20;;;;;;;91.20;61.00;;;;;;;8.44;100.00;102626.72;5020163;28;20028;-64
2021/10/10 08:26:47;;;;;;;87.78;61.45;;;;;;;8.33;100.00;102616.63;5023916;28;20018;-66
2021/10/10 08:29:12;;;;;;;86.45;59.88;;;;;;;8.38;100.00;102625.59;5021874;28;20412;-64
2021/10/10 08:31:38;;;;;;;94.00;65.38;;;;;;;8.40;100.00;102627.41;5018924;28;20026;-66
2021/10/10 08:34:04;;;;;;;98.28;67.07;;;;;;;8.37;100.00;102629.09;5028135;28;20021;-64
2021/10/10 08:36:29;;;;;;;91.95;65.05;;;;;;;8.43;100.00;102631.09;5020577;28;20030;-65
2021/10/10 08:38:54;;;;;;;94.43;64.90;;;;;;;8.65;100.00;102629.34;5024476;28;20477;-66
2021/10/10 08:41:24;;;;;;;89.65;62.17;;;;;;;8.95;100.00;102634.06;5022083;28;20033;-66
2021/10/10 08:43:50;;;;;;;88.70;62.20;;;;;;;9.11;100.00;102636.47;5021789;28;20381;-67
2021/10/10 08:46:24;;;;;;;90.57;63.58;;;;;;;9.17;100.00;102641.06;5023901;28;20113;-65
2021/10/10 08:48:51;;;;;;;91.68;62.63;;;;;;;9.42;100.00;102649.09;5021316;28;20033;-66
2021/10/10 08:51:17;;;;;;;94.47;63.75;;;;;;;9.66;100.00;102652.59;5018234;28;20050;-64
2021/10/10 08:53:44;;;;;;;88.03;62.10;;;;;;;9.86;100.00;102654.22;5014939;28;20484;-64
2021/10/10 08:56:10;;;;;;;95.93;62.63;;;;;;;9.95;98.16;102651.91;5021889;28;20073;-63
2021/10/10 08:58:41;;;;;;;99.88;68.38;;;;;;;10.02;97.92;102647.75;5021936;28;20113;-64
2021/10/10 09:01:15;;;;;;;95.50;66.60;;;;;;;10.38;97.66;102652.56;5019840;28;20026;-64
2021/10/10 09:03:45;;;;;;;108.78;72.35;;;;;;;10.76;96.20;102658.19;5024459;28;20037;-64
2021/10/10 09:06:11;;;;;;;107.75;73.88;;;;;;;11.40;92.28;102661.06;5020042;28;20434;-64
2021/10/10 09:08:36;;;;;;;116.55;77.25;;;;;;;11.78;87.48;102660.34;5025277;28;20025;-65
2021/10/10 09:11:01;;;;;;;115.90;76.72;;;;;;;12.08;85.61;102655.03;5019325;28;20473;-65
2021/10/10 09:13:36;;;;;;;102.78;70.05;;;;;;;12.32;85.60;102654.78;5023374;28;20029;-67
2021/10/10 09:16:03;;;;;;;109.70;75.25;;;;;;;12.29;84.46;102660.03;5022484;28;20519;-64
2021/10/10 09:18:47;;;;;;;111.63;75.97;;;;;;;12.53;85.35;102662.38;5024081;28;20449;-65
2021/10/10 09:21:13;;;;;;;109.80;75.15;;;;;;;12.52;84.39;102663.28;5025126;28;20021;-67
2021/10/10 09:23:39;;;;;;;119.65;80.28;;;;;;;12.74;83.04;102650.50;5026012;28;20049;-68
2021/10/10 09:26:05;;;;;;;124.95;81.22;;;;;;;12.83;82.05;102655.13;5020497;28;20065;-65
2021/10/10 09:28:33;;;;;;;118.47;80.55;;;;;;;12.91;81.71;102654.44;5026949;28;20021;-66
2021/10/10 09:31:01;;;;;;;120.32;76.70;;;;;;;13.02;80.69;102654.72;5017281;28;20057;-65
2021/10/10 09:33:36;;;;;;;114.68;75.40;;;;;;;13.27;80.98;102657.03;5018763;28;20022;-65
2021/10/10 09:36:09;;;;;;;119.68;77.80;;;;;;;13.30;79.10;102659.75;5018561;28;20033;-67
2021/10/10 09:38:43;;;;;;;;;;;;;;;13.86;80.60;102659.16;5022601;28;20025;-67
2021/10/10 09:41:17;;;;;;;123.50;76.63;;;;;;;14.08;75.43;102656.06;5020081;28;19912;-67
2021/10/10 09:46:52;;;;;;;113.00;71.97;;;;;;;14.63;72.46;102655.25;5020887;28;20100;-66
2021/10/10 09:49:29;;;;;;;120.75;77.05;;;;;;;14.34;74.21;102652.06;5023810;28;20021;-67
2021/10/10 09:52:09;;;;;;;110.55;74.38;;;;;;;14.98;73.63;102655.81;5020545;28;20029;-66
2021/10/10 09:54:53;;;;;;;115.20;75.43;;;;;;;15.98;70.40;102645.53;5015531;28;20053;-67
2021/10/10 09:57:19;;;;;;;114.72;74.68;;;;;;;17.01;64.85;102650.84;5019328;28;20120;-68
2021/10/10 09:59:45;;;;;;;104.45;67.55;;;;;;;17.62;61.05;102641.34;5018345;28;20029;-65
2021/10/10 10:02:12;;;;;;;108.38;68.60;;;;;;;17.75;60.44;102637.81;5019619;28;20578;-67
2021/10/10 10:04:42;;;;;;;103.90;65.35;;;;;;;17.56;60.15;102646.66;5020338;28;20026;-67
2021/10/10 10:07:10;;;;;;;104.18;66.70;;;;;;;17.32;61.37;102637.66;5022272;28;20487;-66
2021/10/10 10:09:35;;;;;;;111.15;69.60;;;;;;;16.88;62.08;102635.63;5018137;28;20029;-65
2021/10/10 10:12:00;;;;;;;104.20;68.20;;;;;;;16.54;62.62;102635.34;5020311;28;20025;-66
2021/10/10 10:14:26;;;;;;;106.88;68.90;;;;;;;16.56;63.03;102628.25;5020945;28;20461;-69
2021/10/10 10:16:53;;;;;;;104.10;67.45;;;;;;;17.23;60.57;102624.25;5018540;28;20469;-69
2021/10/10 10:19:24;;;;;;;101.95;65.65;;;;;;;18.07;59.41;102623.66;5019608;28;20477;-68
2021/10/10 10:21:53;;;;;;;106.22;63.35;;;;;;;19.32;55.11;102617.22;5016007;28;20037;-65
2021/10/10 10:24:20;;;;;;;96.30;62.33;;;;;;;20.40;52.31;102607.63;5019574;28;20372;-68
2021/10/10 10:26:45;;;;;;;96.18;59.22;;;;;;;21.28;48.46;102609.41;5020128;28;20022;-67
2021/10/10 10:29:23;;;;;;;94.78;59.70;;;;;;;22.04;49.01;102620.03;5020656;28;20460;-68
2021/10/10 10:31:50;;;;;;;90.90;58.10;;;;;;;22.67;45.21;102618.09;5016729;28;20029;-68
2021/10/10 10:34:17;;;;;;;91.60;58.00;;;;;;;23.15;44.24;102626.16;5016429;28;20384;-68
2021/10/10 10:36:59;;;;;;;87.32;56.30;;;;;;;23.11;44.78;102635.22;5015877;28;20033;-65
2021/10/10 10:39:50;;;;;;;85.43;56.22;;;;;;;23.24;44.58;102644.88;5016855;28;20037;-65
2021/10/10 10:42:24;;;;;;;87.05;54.10;;;;;;;23.27;42.51;102657.38;5017855;28;20049;-65
2021/10/10 10:44:51;;;;;;;88.90;55.70;;;;;;;23.12;41.37;102658.59;5018162;28;20116;-66
2021/10/10 10:47:36;;;;;;;84.30;53.00;;;;;;;23.18;42.28;102661.16;5019047;28;20377;-66
2021/10/10 10:50:04;;;;;;;82.10;53.38;;;;;;;23.30;41.37;102631.25;5017957;28;20081;-65
2021/10/10 10:52:34;;;;;;;83.53;52.80;;;;;;;23.62;39.71;102608.06;5015925;28;20030;-65
2021/10/10 10:55:12;;;;;;;75.55;49.25;;;;;;;24.17;39.71;102615.78;5019179;28;20030;-66
2021/10/10 10:58:00;;;;;;;82.65;52.20;;;;;;;24.57;39.31;102641.81;5019002;28;20353;-66
2021/10/10 11:00:33;;;;;;;80.13;49.95;;;;;;;25.28;36.74;102641.69;5016840;28;20030;-65
2021/10/10 11:02:58;;;;;;;77.40;50.35;;;;;;;25.30;36.19;102637.13;5019271;28;20076;-66
2021/10/10 11:05:31;;;;;;;81.68;49.88;;;;;;;25.40;37.60;102636.81;5019089;28;20049;-65
2021/10/10 11:07:58;;;;;;;73.25;47.33;;;;;;;25.78;36.43;102641.13;5019519;28;20026;-65
2021/10/10 11:10:23;;;;;;;80.30;50.17;;;;;;;26.49;35.81;102636.09;5018790;28;20026;-66
2021/10/10 11:12:55;;;;;;;74.22;49.08;;;;;;;26.79;36.29;102640.47;5017901;28;20029;-65